Time;durP1;ratioP1;P1;durP2;ratioP2;P2;SDS_P1;SDS_P2;PMS_P1;PMS_P2;Temp;Humidity;BMP_temperature;BMP_pressure;BME280_temperature;BME280_humidity;BME280_pressure;Samples;Min_cycle;Max_cycle;Signal;HPM_P1;HPM_P2
2022/08/08 00:02:09;;;;;;;4.63;3.60;;;14.80;99.90;;;;;;4971772;28;20053;-73
2022/08/08 00:04:47;;;;;;;4.13;3.70;;;14.90;99.90;;;;;;4997839;28;20120;-73
2022/08/08 00:07:12;;;;;;;4.68;3.78;;;14.80;99.90;;;;;;5048687;28;20047;-73
2022/08/08 00:09:53;;;;;;;3.80;3.42;;;14.80;99.90;;;;;;5061106;28;20473;-73
2022/08/08 00:12:26;;;;;;;3.88;3.50;;;14.80;99.90;;;;;;5065108;28;20036;-73
2022/08/08 00:15:01;;;;;;;6.15;3.92;;;14.70;99.90;;;;;;5064679;28;20047;-73
2022/08/08 00:17:30;;;;;;;5.93;3.72;;;14.70;99.90;;;;;;5086619;28;20070;-73
2022/08/08 00:20:01;;;;;;;2.30;2.10;;;14.70;99.90;;;;;;5081996;28;20042;-73
2022/08/08 00:22:35;;;;;;;2.72;2.50;;;14.60;99.90;;;;;;5081646;28;20044;-73
2022/08/08 00:25:05;;;;;;;2.10;2.00;;;14.60;99.90;;;;;;5068798;28;20051;-73
2022/08/08 00:27:34;;;;;;;2.38;2.20;;;14.60;99.90;;;;;;5093517;28;20035;-72
2022/08/08 00:30:04;;;;;;;2.40;2.20;;;14.50;99.90;;;;;;5082013;28;20032;-73
2022/08/08 00:32:40;;;;;;;2.60;2.40;;;14.50;99.90;;;;;;5068020;28;20040;-73
2022/08/08 00:35:24;;;;;;;2.45;2.10;;;14.50;99.90;;;;;;5084031;28;20035;-73
2022/08/08 00:38:07;;;;;;;2.08;1.90;;;14.50;99.90;;;;;;5074484;28;20047;-73
2022/08/08 00:40:47;;;;;;;2.60;2.40;;;14.40;99.90;;;;;;5088957;27;20051;-73
2022/08/08 00:43:44;;;;;;;3.53;2.80;;;14.40;99.90;;;;;;5101705;28;20057;-73
2022/08/08 00:46:37;;;;;;;3.88;3.50;;;14.40;99.90;;;;;;5078101;28;20308;-73
2022/08/08 00:49:26;;;;;;;7.75;4.47;;;14.40;99.90;;;;;;5088484;28;20130;-72
2022/08/08 00:52:13;;;;;;;5.80;4.20;;;14.40;99.90;;;;;;5084914;28;20039;-72
2022/08/08 00:54:42;;;;;;;7.22;5.03;;;14.40;99.90;;;;;;5082736;28;20447;-70
2022/08/08 00:57:44;;;;;;;2.40;2.10;;;14.40;99.90;;;;;;5082853;28;20089;-70
2022/08/08 01:00:14;;;;;;;2.80;2.40;;;14.30;99.90;;;;;;5101294;28;20036;-71
2022/08/08 01:03:27;;;;;;;1.77;1.67;;;14.20;99.90;;;;;;5082414;28;20398;-70
2022/08/08 01:06:12;;;;;;;;;;;14.20;99.90;;;;;;5098815;28;20047;-70
2022/08/08 01:09:02;;;;;;;2.65;2.45;;;14.00;99.90;;;;;;5086747;28;19969;-70
2022/08/08 01:11:46;;;;;;;3.00;2.50;;;14.00;99.90;;;;;;5104515;28;20046;-71
2022/08/08 01:14:28;;;;;;;2.92;1.88;;;14.00;99.90;;;;;;5082743;28;20040;-73
2022/08/08 01:17:40;;;;;;;1.90;1.80;;;13.90;99.90;;;;;;5083451;28;20051;-72
2022/08/08 01:20:52;;;;;;;2.08;1.98;;;13.90;99.90;;;;;;5094040;28;20043;-73
2022/08/08 01:23:54;;;;;;;1.10;1.10;;;13.90;99.90;;;;;;5050355;28;20050;-73
2022/08/08 01:26:58;;;;;;;1.15;1.10;;;13.90;99.90;;;;;;5075396;28;20052;-72
2022/08/08 01:29:41;;;;;;;1.50;1.40;;;13.80;99.90;;;;;;5091317;28;20502;-73
2022/08/08 01:32:42;;;;;;;2.33;1.65;;;13.80;99.90;;;;;;5098713;28;20039;-73
2022/08/08 01:35:31;;;;;;;2.08;1.85;;;13.80;99.90;;;;;;5060106;28;20055;-73
2022/08/08 01:38:35;;;;;;;2.13;1.90;;;13.80;99.90;;;;;;5074938;28;20040;-72
2022/08/08 01:41:30;;;;;;;2.00;1.90;;;13.70;99.90;;;;;;5061951;28;20052;-73
2022/08/08 01:44:41;;;;;;;2.13;1.92;;;13.70;99.90;;;;;;5040313;28;20114;-72
2022/08/08 01:47:40;;;;;;;2.30;1.67;;;13.60;99.90;;;;;;5089689;28;20039;-72
2022/08/08 01:50:34;;;;;;;1.55;1.45;;;13.60;99.90;;;;;;5066900;28;20048;-73
2022/08/08 01:53:20;;;;;;;2.75;2.00;;;13.50;99.90;;;;;;5073437;28;20040;-72
2022/08/08 01:56:02;;;;;;;2.58;2.17;;;13.50;99.90;;;;;;5075430;28;20048;-73
2022/08/08 01:58:44;;;;;;;2.50;2.30;;;13.50;99.90;;;;;;5057288;28;20574;-73
2022/08/08 02:01:43;;;;;;;2.75;2.55;;;13.40;99.90;;;;;;5073742;28;20093;-72
2022/08/08 02:04:15;;;;;;;2.42;2.22;;;13.40;99.90;;;;;;5059829;28;20036;-72
2022/08/08 02:06:58;;;;;;;2.97;2.50;;;13.40;99.90;;;;;;5070501;28;20036;-73
2022/08/08 02:09:54;;;;;;;389.10;360.17;;;13.40;99.90;;;;;;5072268;28;20064;-74
2022/08/08 02:12:43;;;;;;;3.65;3.35;;;13.40;99.90;;;;;;5073638;28;20071;-73
2022/08/08 02:15:18;;;;;;;3.20;2.90;;;13.50;99.90;;;;;;5048314;28;20056;-73
2022/08/08 02:18:42;;;;;;;3.58;3.28;;;13.50;99.90;;;;;;5075463;28;20082;-73
2022/08/08 02:24:03;;;;;;;4.70;4.30;;;13.40;99.90;;;;;;5030769;28;19917;-73
2022/08/08 02:26:42;;;;;;;4.60;3.75;;;13.40;99.90;;;;;;5033790;28;20315;-73
2022/08/08 02:29:49;;;;;;;6.63;3.70;;;13.40;99.90;;;;;;5064990;28;20040;-73
2022/08/08 02:32:23;;;;;;;4.55;4.07;;;13.40;99.90;;;;;;4987671;28;20493;-74
2022/08/08 02:35:22;;;;;;;3.70;3.40;;;13.40;99.90;;;;;;4975567;28;20042;-73
2022/08/08 02:38:11;;;;;;;4.05;3.75;;;13.30;99.90;;;;;;5052182;28;20059;-73
2022/08/08 02:40:42;;;;;;;4.85;3.90;;;13.30;99.90;;;;;;5063035;28;20406;-74
2022/08/08 02:43:41;;;;;;;4.18;3.78;;;13.30;99.90;;;;;;5061659;28;20048;-74
2022/08/08 02:46:31;;;;;;;4.40;4.00;;;13.30;99.90;;;;;;5067847;28;20048;-73
2022/08/08 02:49:13;;;;;;;3.50;3.13;;;13.30;99.90;;;;;;5064573;28;20043;-73
2022/08/08 02:51:57;;;;;;;2.67;2.47;;;13.30;99.90;;;;;;5079238;28;20039;-73
2022/08/08 02:55:01;;;;;;;2.15;2.05;;;13.30;99.90;;;;;;5061247;28;20033;-73
2022/08/08 02:57:38;;;;;;;1.63;1.52;;;13.30;99.90;;;;;;5074574;28;20050;-73
2022/08/08 03:00:16;;;;;;;1.50;1.40;;;13.30;99.90;;;;;;5061454;28;20055;-73
2022/08/08 03:03:19;;;;;;;1.80;1.70;;;13.20;99.90;;;;;;5070678;28;20044;-73
2022/08/08 03:06:03;;;;;;;2.50;2.30;;;13.20;99.90;;;;;;5071736;28;20050;-74
2022/08/08 03:09:11;;;;;;;3.45;3.13;;;13.20;99.90;;;;;;5063353;28;20398;-73
2022/08/08 03:12:02;;;;;;;2.95;2.70;;;13.20;99.90;;;;;;5080753;28;20055;-73
2022/08/08 03:14:45;;;;;;;2.35;2.15;;;13.20;99.90;;;;;;5063721;28;20047;-73
2022/08/08 03:17:36;;;;;;;2.75;2.15;;;13.10;99.90;;;;;;5060564;28;20048;-73
2022/08/08 03:22:27;;;;;;;3.25;2.78;;;12.90;99.90;;;;;;5074190;28;20044;-73
2022/08/08 03:24:53;;;;;;;3.15;2.85;;;12.90;99.90;;;;;;5070274;28;20048;-73
2022/08/08 03:27:36;;;;;;;3.97;3.33;;;12.90;99.90;;;;;;5074158;28;20044;-74
2022/08/08 03:30:08;;;;;;;5.15;3.70;;;12.90;99.90;;;;;;5061945;28;20131;-73
2022/08/08 03:35:20;;;;;;;3.30;3.10;;;13.00;99.90;;;;;;5066470;28;20391;-71
2022/08/08 03:37:46;;;;;;;3.75;3.40;;;12.90;99.90;;;;;;5070725;28;20105;-71
2022/08/08 03:40:11;;;;;;;5.63;3.85;;;12.90;99.90;;;;;;5092054;28;20035;-71
2022/08/08 03:42:37;;;;;;;4.30;2.85;;;12.90;99.90;;;;;;5074179;28;20043;-71
2022/08/08 03:45:20;;;;;;;2.28;1.90;;;13.00;99.90;;;;;;5074018;28;20044;-71
2022/08/08 03:48:04;;;;;;;1.67;1.58;;;12.90;99.90;;;;;;5074038;28;20044;-71
2022/08/08 03:50:31;;;;;;;1.88;1.77;;;12.80;99.90;;;;;;5074013;28;20046;-71
2022/08/08 03:53:19;;;;;;;2.45;2.15;;;12.80;99.90;;;;;;5063594;28;20547;-71
2022/08/08 03:55:48;;;;;;;4.90;2.72;;;12.70;99.90;;;;;;5072939;28;20071;-71
2022/08/08 03:58:22;;;;;;;3.55;2.42;;;12.60;99.90;;;;;;5073635;28;20048;-71
2022/08/08 04:00:53;;;;;;;3.20;2.90;;;12.60;99.90;;;;;;5073775;28;20083;-71
2022/08/08 04:03:20;;;;;;;3.40;3.10;;;12.60;99.90;;;;;;5073497;28;20036;-71
2022/08/08 04:05:46;;;;;;;3.22;3.03;;;12.60;99.90;;;;;;5091584;28;20044;-71
2022/08/08 04:08:22;;;;;;;3.40;3.10;;;12.60;99.90;;;;;;5074916;28;20036;-71
2022/08/08 04:10:50;;;;;;;4.18;3.40;;;12.60;99.90;;;;;;5073495;28;20545;-71
2022/08/08 04:13:17;;;;;;;4.13;3.33;;;12.70;99.90;;;;;;5091392;28;20032;-71
2022/08/08 04:15:43;;;;;;;3.20;2.90;;;12.70;99.90;;;;;;5073760;28;20047;-71
2022/08/08 04:18:09;;;;;;;3.47;3.08;;;12.70;99.90;;;;;;5059694;28;20052;-71
2022/08/08 04:20:35;;;;;;;3.35;3.08;;;12.70;99.90;;;;;;5073327;28;20047;-71
2022/08/08 04:23:01;;;;;;;3.42;3.13;;;12.70;99.90;;;;;;5065970;28;20499;-71
2022/08/08 04:25:27;;;;;;;4.03;3.38;;;12.70;99.90;;;;;;5083004;28;20089;-72
2022/08/08 04:27:52;;;;;;;4.15;2.97;;;12.70;99.90;;;;;;5060389;28;20075;-72
2022/08/08 04:30:18;;;;;;;3.80;2.50;;;12.70;99.90;;;;;;5078137;28;20127;-71
2022/08/08 04:32:44;;;;;;;4.43;3.03;;;12.60;99.90;;;;;;5068492;28;20044;-72
2022/08/08 04:35:09;;;;;;;4.63;2.40;;;12.70;99.90;;;;;;5073709;28;20059;-71
2022/08/08 04:37:35;;;;;;;4.07;2.65;;;12.70;99.90;;;;;;5058436;28;20044;-71
2022/08/08 04:40:02;;;;;;;3.17;2.88;;;12.70;99.90;;;;;;5070645;28;20442;-73
2022/08/08 04:42:30;;;;;;;3.47;2.60;;;12.70;99.90;;;;;;5057192;28;20554;-71
2022/08/08 04:44:56;;;;;;;1.55;1.42;;;12.70;99.90;;;;;;5051270;28;20095;-71
2022/08/08 04:47:22;;;;;;;1.23;1.13;;;12.70;99.90;;;;;;5065023;28;20395;-71
2022/08/08 04:49:48;;;;;;;1.20;1.20;;;12.70;99.90;;;;;;5080395;28;20040;-71
2022/08/08 04:52:13;;;;;;;1.60;1.50;;;12.70;99.90;;;;;;5058868;28;20047;-71
2022/08/08 04:54:39;;;;;;;2.00;1.90;;;12.80;99.90;;;;;;5063184;28;20047;-71
2022/08/08 04:57:05;;;;;;;1.80;1.70;;;12.80;99.90;;;;;;5070625;28;20048;-71
2022/08/08 04:59:30;;;;;;;2.22;2.03;;;12.70;99.90;;;;;;5071854;28;20090;-71
2022/08/08 05:01:56;;;;;;;2.95;2.42;;;12.70;99.90;;;;;;5066917;28;20052;-71
2022/08/08 05:04:22;;;;;;;3.20;3.00;;;12.70;99.90;;;;;;5055312;28;20097;-72
2022/08/08 05:06:47;;;;;;;2.40;2.17;;;12.70;99.90;;;;;;5077992;28;20040;-71
2022/08/08 05:09:14;;;;;;;2.00;1.90;;;12.60;99.90;;;;;;5072935;28;20054;-71
2022/08/08 05:11:40;;;;;;;2.40;2.20;;;12.60;99.90;;;;;;5068184;28;20044;-72
2022/08/08 05:14:07;;;;;;;2.40;2.20;;;12.70;99.90;;;;;;5064421;28;20495;-72
2022/08/08 05:16:33;;;;;;;1.90;1.80;;;12.70;99.90;;;;;;5077105;28;20040;-71
2022/08/08 05:18:59;;;;;;;2.38;2.17;;;12.70;99.90;;;;;;5072834;28;20379;-71
2022/08/08 05:21:24;;;;;;;6.30;3.20;;;12.80;99.90;;;;;;5068950;28;20036;-71
2022/08/08 05:23:52;;;;;;;6.25;4.30;;;12.80;99.90;;;;;;5067724;28;20055;-71
2022/08/08 05:26:18;;;;;;;4.82;4.43;;;12.90;99.90;;;;;;5066098;28;20036;-72
2022/08/08 05:28:44;;;;;;;4.28;3.80;;;13.00;99.90;;;;;;5074449;28;20036;-72
2022/08/08 05:31:11;;;;;;;5.57;3.50;;;13.00;99.90;;;;;;5064394;28;20501;-71
2022/08/08 05:33:37;;;;;;;5.82;4.50;;;13.00;99.90;;;;;;5073995;28;20546;-71
2022/08/08 05:36:04;;;;;;;5.85;5.25;;;13.10;99.90;;;;;;5056413;28;20041;-71
2022/08/08 05:38:33;;;;;;;7.43;5.78;;;13.20;99.90;;;;;;5087713;28;20534;-72
2022/08/08 05:41:02;;;;;;;6.70;6.10;;;13.20;99.90;;;;;;5081872;28;20494;-71
2022/08/08 05:43:30;;;;;;;6.35;5.15;;;13.30;99.90;;;;;;5046306;28;20032;-72
2022/08/08 05:45:58;;;;;;;6.30;5.40;;;13.30;99.90;;;;;;5066147;28;20037;-71
2022/08/08 05:48:24;;;;;;;5.63;4.97;;;13.30;99.90;;;;;;5056309;28;20049;-71
2022/08/08 05:50:50;;;;;;;5.22;4.72;;;13.50;99.90;;;;;;5072348;28;20402;-71
2022/08/08 05:53:17;;;;;;;7.38;5.78;;;13.60;99.90;;;;;;5059892;28;20043;-72
2022/08/08 05:55:44;;;;;;;10.05;6.40;;;13.60;99.90;;;;;;5082954;28;20235;-71
2022/08/08 05:58:13;;;;;;;13.30;6.57;;;13.70;99.90;;;;;;5069737;28;20072;-72
2022/08/08 06:00:43;;;;;;;11.63;6.93;;;13.80;99.90;;;;;;5063132;28;20473;-72
2022/08/08 06:03:14;;;;;;;10.15;5.75;;;13.90;99.90;;;;;;5070423;28;20036;-72
2022/08/08 06:05:51;;;;;;;13.73;6.40;;;14.00;99.90;;;;;;5076644;28;20517;-72
2022/08/08 06:08:24;;;;;;;9.38;6.50;;;14.10;99.90;;;;;;5083855;28;20036;-72
2022/08/08 06:10:51;;;;;;;10.15;6.95;;;14.20;99.90;;;;;;5093775;28;20449;-72
2022/08/08 06:13:18;;;;;;;14.18;7.00;;;14.30;99.90;;;;;;5062167;28;20082;-72
2022/08/08 06:15:47;;;;;;;14.13;6.95;;;14.40;99.90;;;;;;5086994;28;20044;-72
2022/08/08 06:18:17;;;;;;;11.15;7.10;;;14.50;99.90;;;;;;5087779;28;20063;-72
2022/08/08 06:20:44;;;;;;;9.30;6.28;;;14.60;99.90;;;;;;5075580;28;20079;-72
2022/08/08 06:23:10;;;;;;;10.75;7.30;;;14.70;99.90;;;;;;5075486;28;20180;-72
2022/08/08 06:25:40;;;;;;;10.15;7.25;;;14.80;99.90;;;;;;5072851;28;20048;-72
2022/08/08 06:28:14;;;;;;;11.15;7.32;;;15.00;99.90;;;;;;5075129;28;20126;-72
2022/08/08 06:30:43;;;;;;;10.70;7.18;;;15.10;99.90;;;;;;5073939;28;20044;-72
2022/08/08 06:33:11;;;;;;;11.70;6.85;;;15.30;99.90;;;;;;5058814;28;20074;-72
2022/08/08 06:35:44;;;;;;;9.15;6.28;;;15.40;99.90;;;;;;5058545;28;20039;-72
2022/08/08 06:38:10;;;;;;;13.45;7.25;;;15.50;99.90;;;;;;5075188;28;20047;-72
2022/08/08 06:40:38;;;;;;;10.23;6.20;;;15.60;99.90;;;;;;5074061;28;20056;-72
2022/08/08 06:43:08;;;;;;;8.25;6.07;;;15.80;99.90;;;;;;5070167;28;20055;-72
2022/08/08 06:45:37;;;;;;;16.77;7.25;;;15.90;99.90;;;;;;5072440;28;20036;-72
2022/08/08 06:48:04;;;;;;;12.32;7.70;;;16.00;99.90;;;;;;5073105;28;20068;-72
2022/08/08 06:50:31;;;;;;;9.85;6.90;;;16.10;99.90;;;;;;5074302;28;20040;-72
2022/08/08 06:53:02;;;;;;;14.52;6.80;;;16.30;99.90;;;;;;5093067;28;20032;-72
2022/08/08 06:55:29;;;;;;;10.80;6.82;;;16.40;99.90;;;;;;5074778;28;20084;-72
2022/08/08 06:57:55;;;;;;;14.45;8.50;;;16.50;99.90;;;;;;5074586;28;20095;-72
2022/08/08 07:00:21;;;;;;;15.70;6.78;;;16.70;99.90;;;;;;5058038;28;20047;-72
2022/08/08 07:02:56;;;;;;;11.45;5.60;;;16.80;99.90;;;;;;5074549;28;20414;-71
2022/08/08 07:05:23;;;;;;;14.32;5.93;;;16.90;99.90;;;;;;5092389;28;20050;-72
2022/08/08 07:07:58;;;;;;;8.25;5.10;;;17.00;99.90;;;;;;5074729;28;20578;-72
2022/08/08 07:10:24;;;;;;;9.27;5.15;;;17.20;99.90;;;;;;5071108;28;20039;-71
2022/08/08 07:12:59;;;;;;;8.50;2.90;;;17.30;99.90;;;;;;5064010;28;20036;-72
2022/08/08 07:15:31;;;;;;;7.88;2.80;;;17.40;99.90;;;;;;5074078;28;20088;-72
2022/08/08 07:18:03;;;;;;;8.98;3.08;;;17.60;99.90;;;;;;5072107;28;20072;-71
2022/08/08 07:20:33;;;;;;;5.70;2.83;;;17.70;99.90;;;;;;5068010;28;20384;-71
2022/08/08 07:23:26;;;;;;;8.43;2.95;;;17.80;99.90;;;;;;5066107;28;20039;-71
2022/08/08 07:25:54;;;;;;;9.10;2.88;;;18.00;99.90;;;;;;5087169;28;20048;-71
2022/08/08 07:28:24;;;;;;;6.85;2.90;;;18.10;99.90;;;;;;5060395;28;20036;-72
2022/08/08 07:30:50;;;;;;;10.43;2.25;;;18.20;99.90;;;;;;5088351;28;20036;-71
2022/08/08 07:33:17;;;;;;;8.63;2.50;;;18.30;99.90;;;;;;5084862;28;20150;-72
2022/08/08 07:35:46;;;;;;;9.63;2.90;;;18.40;99.90;;;;;;5059051;28;20072;-71
2022/08/08 07:38:12;;;;;;;6.13;2.10;;;18.50;99.90;;;;;;5062027;28;20047;-71
2022/08/08 07:40:38;;;;;;;6.78;2.20;;;18.60;99.90;;;;;;5067571;28;20055;-72
2022/08/08 07:43:04;;;;;;;5.70;2.00;;;18.70;99.90;;;;;;5065467;28;20501;-71
2022/08/08 07:45:30;;;;;;;6.65;2.42;;;18.90;99.90;;;;;;5056147;28;20098;-71
2022/08/08 07:47:57;;;;;;;5.97;1.77;;;19.00;99.90;;;;;;5064534;28;20528;-71
2022/08/08 07:50:24;;;;;;;5.68;1.98;;;19.10;99.90;;;;;;5056082;28;20094;-71
2022/08/08 07:52:56;;;;;;;5.43;2.15;;;19.30;99.90;;;;;;5064677;28;20040;-71
2022/08/08 07:55:27;;;;;;;7.15;1.95;;;19.40;99.90;;;;;;5060417;28;20124;-72
2022/08/08 07:58:07;;;;;;;7.85;1.98;;;19.50;99.90;;;;;;5062228;28;20486;-71
2022/08/08 08:00:48;;;;;;;12.02;2.15;;;19.70;99.90;;;;;;5064404;28;20402;-72
2022/08/08 08:03:21;;;;;;;7.78;2.38;;;19.80;99.90;;;;;;5091970;28;20418;-71
2022/08/08 08:05:50;;;;;;;10.02;2.20;;;20.00;99.90;;;;;;5091783;28;20368;-71
2022/08/08 08:08:24;;;;;;;6.57;2.00;;;20.10;99.90;;;;;;5085668;28;20124;-72
2022/08/08 08:10:55;;;;;;;6.82;1.95;;;20.20;99.90;;;;;;5091610;28;20071;-72
2022/08/08 08:13:26;;;;;;;6.95;1.70;;;20.30;99.90;;;;;;5091654;28;20439;-71
2022/08/08 08:16:14;;;;;;;3.90;1.58;;;20.40;99.90;;;;;;5060187;28;20409;-71
2022/08/08 08:18:45;;;;;;;7.93;2.13;;;20.60;99.90;;;;;;5073174;28;20391;-71
2022/08/08 08:21:12;;;;;;;6.97;1.80;;;20.70;99.90;;;;;;5057090;28;20380;-71
2022/08/08 08:23:37;;;;;;;7.18;1.67;;;20.90;99.90;;;;;;5088792;28;20044;-72
2022/08/08 08:26:03;;;;;;;6.60;1.45;;;21.00;99.90;;;;;;5069591;28;20041;-71
2022/08/08 08:28:30;;;;;;;5.60;1.48;;;21.10;99.90;;;;;;5085005;28;20394;-72
2022/08/08 08:30:57;;;;;;;6.95;1.90;;;21.20;99.90;;;;;;5073421;28;20036;-72
2022/08/08 08:33:23;;;;;;;4.88;1.50;;;21.30;99.90;;;;;;5072054;28;20450;-71
2022/08/08 08:35:49;;;;;;;7.45;1.50;;;21.40;99.90;;;;;;5078394;28;20044;-71
2022/08/08 08:38:15;;;;;;;6.25;1.50;;;21.50;99.90;;;;;;5065817;28;20493;-71
2022/08/08 08:40:41;;;;;;;5.78;1.58;;;21.50;99.90;;;;;;5060775;28;20134;-71
2022/08/08 08:43:07;;;;;;;8.15;1.55;;;21.30;99.90;;;;;;5070412;28;20050;-71
2022/08/08 08:45:35;;;;;;;4.20;1.25;;;21.10;99.90;;;;;;5085149;28;20414;-71
2022/08/08 08:48:02;;;;;;;4.78;1.63;;;21.00;99.90;;;;;;5071382;28;20040;-71
2022/08/08 08:50:29;;;;;;;5.03;1.52;;;20.90;99.90;;;;;;5059607;28;20102;-71
2022/08/08 08:52:58;;;;;;;5.32;1.65;;;21.00;99.90;;;;;;5067640;28;20060;-72
2022/08/08 08:55:25;;;;;;;5.50;1.40;;;21.20;99.90;;;;;;5083212;28;20087;-72
2022/08/08 08:57:54;;;;;;;3.67;1.58;;;21.30;99.90;;;;;;5068953;28;20398;-71
2022/08/08 09:00:20;;;;;;;5.60;1.35;;;21.30;99.90;;;;;;5072371;28;20040;-71
2022/08/08 09:02:48;;;;;;;5.53;1.50;;;21.20;99.90;;;;;;5077201;28;20133;-71
2022/08/08 09:05:15;;;;;;;4.32;1.25;;;21.30;99.90;;;;;;5077772;28;20402;-72
2022/08/08 09:07:42;;;;;;;4.38;1.30;;;21.50;99.90;;;;;;5073592;28;20128;-72
2022/08/08 09:10:13;;;;;;;7.13;1.55;;;21.60;99.90;;;;;;5076651;28;20092;-72
2022/08/08 09:12:43;;;;;;;7.55;1.50;;;21.70;99.90;;;;;;5076809;28;20592;-72
2022/08/08 09:15:09;;;;;;;4.93;1.20;;;21.70;99.90;;;;;;5088447;28;20437;-71
2022/08/08 09:17:36;;;;;;;3.15;1.30;;;21.70;99.90;;;;;;5072998;28;20052;-71
2022/08/08 09:20:02;;;;;;;5.60;1.38;;;21.60;99.90;;;;;;5076677;28;20415;-72
2022/08/08 09:22:28;;;;;;;6.15;1.50;;;21.60;99.90;;;;;;5063096;28;20428;-72
2022/08/08 09:24:54;;;;;;;3.60;1.17;;;21.50;99.90;;;;;;5074944;28;20032;-71
2022/08/08 09:27:21;;;;;;;3.72;1.30;;;21.50;99.90;;;;;;5063672;28;20416;-71
2022/08/08 09:30:02;;;;;;;5.78;1.33;;;21.60;99.90;;;;;;5071685;28;20043;-71
2022/08/08 09:32:42;;;;;;;4.53;1.20;;;21.60;99.90;;;;;;5069892;28;20036;-71
2022/08/08 09:35:10;;;;;;;5.15;1.85;;;21.70;99.90;;;;;;5065459;28;20045;-71
2022/08/08 09:37:59;;;;;;;4.20;1.30;;;21.70;99.90;;;;;;5078429;28;20040;-71
2022/08/08 09:40:26;;;;;;;9.00;1.63;;;21.60;99.90;;;;;;5062822;28;20391;-72
2022/08/08 09:42:54;;;;;;;6.22;1.45;;;21.60;99.90;;;;;;5069238;28;20044;-72
2022/08/08 09:45:31;;;;;;;4.55;1.40;;;21.60;99.90;;;;;;5070256;28;20375;-72
2022/08/08 09:48:02;;;;;;;4.82;1.42;;;21.80;99.90;;;;;;5067680;28;20505;-72
2022/08/08 09:50:32;;;;;;;5.27;1.30;;;22.10;99.90;;;;;;5073405;28;20042;-72
2022/08/08 09:53:00;;;;;;;3.15;1.20;;;22.30;99.90;;;;;;5067216;28;20625;-72
2022/08/08 09:55:29;;;;;;;3.05;1.00;;;22.50;99.90;;;;;;5087555;28;20400;-72
2022/08/08 09:58:14;;;;;;;3.20;1.00;;;22.70;99.90;;;;;;5083174;28;20051;-72
2022/08/08 10:00:40;;;;;;;4.40;1.27;;;23.00;99.90;;;;;;5098702;28;20088;-72
2022/08/08 10:03:12;;;;;;;6.20;1.15;;;23.30;99.90;;;;;;5087070;28;20398;-72
2022/08/08 10:05:38;;;;;;;3.47;1.08;;;23.60;99.90;;;;;;5073536;28;20048;-72
2022/08/08 10:08:04;;;;;;;4.32;1.23;;;23.90;99.90;;;;;;5087550;28;20032;-72
2022/08/08 10:10:38;;;;;;;2.25;1.00;;;24.30;99.90;;;;;;5068408;28;20048;-72
2022/08/08 10:13:21;;;;;;;4.00;1.20;;;24.60;99.10;;;;;;5056766;28;20058;-72
2022/08/08 10:15:49;;;;;;;4.75;1.00;;;24.80;96.50;;;;;;5084218;28;20119;-72
2022/08/08 10:18:29;;;;;;;2.90;0.95;;;25.00;95.60;;;;;;5071563;28;20067;-72
2022/08/08 10:21:07;;;;;;;5.57;1.13;;;24.90;94.20;;;;;;5075519;28;20047;-72
2022/08/08 10:23:45;;;;;;;3.65;1.00;;;24.80;93.80;;;;;;5061185;28;20045;-72
2022/08/08 10:26:31;;;;;;;2.67;0.98;;;24.60;91.90;;;;;;5069428;28;20036;-72
2022/08/08 10:29:08;;;;;;;4.07;1.15;;;24.40;93.50;;;;;;5064874;28;20071;-72
2022/08/08 10:34:22;;;;;;;1.98;0.82;;;23.90;95.80;;;;;;5064110;28;20128;-72
2022/08/08 10:36:49;;;;;;;2.63;0.80;;;23.90;95.80;;;;;;5091570;28;20085;-71
2022/08/08 10:39:23;;;;;;;2.50;1.08;;;23.80;95.80;;;;;;5063651;28;20096;-72
2022/08/08 10:41:56;;;;;;;3.47;1.20;;;23.80;94.90;;;;;;5068567;28;20036;-72
2022/08/08 10:44:39;;;;;;;1.50;0.75;;;23.80;96.60;;;;;;5085691;28;20043;-72
2022/08/08 10:47:18;;;;;;;2.97;1.10;;;23.80;96.80;;;;;;5063240;28;20036;-72
2022/08/08 10:49:58;;;;;;;4.78;1.10;;;23.90;95.90;;;;;;5057899;28;20127;-72
2022/08/08 10:52:26;;;;;;;5.72;0.98;;;24.10;96.30;;;;;;5079940;28;20086;-72
2022/08/08 10:54:57;;;;;;;4.43;0.80;;;24.50;94.20;;;;;;5068662;28;20380;-72
2022/08/08 10:57:23;;;;;;;3.63;0.80;;;24.90;92.10;;;;;;5060972;28;20055;-72
2022/08/08 10:59:51;;;;;;;4.43;1.05;;;25.30;93.60;;;;;;5078621;28;20044;-72
2022/08/08 11:02:29;;;;;;;5.20;1.10;;;25.70;94.20;;;;;;5070654;28;20048;-72
2022/08/08 11:05:01;;;;;;;3.65;1.00;;;26.10;91.90;;;;;;5070901;28;20086;-72
2022/08/08 11:07:35;;;;;;;4.25;0.98;;;26.40;90.00;;;;;;5054459;28;20036;-72
2022/08/08 11:10:09;;;;;;;1.80;0.80;;;26.40;90.60;;;;;;5061318;28;20131;-72
2022/08/08 11:12:50;;;;;;;2.70;0.80;;;26.40;87.80;;;;;;5060961;28;20083;-72
2022/08/08 11:15:24;;;;;;;1.95;0.68;;;26.30;86.90;;;;;;5064960;28;20040;-72
2022/08/08 11:17:51;;;;;;;2.13;0.80;;;26.30;80.80;;;;;;5075348;28;20083;-72
2022/08/08 11:20:28;;;;;;;3.38;0.80;;;25.90;82.30;;;;;;5074514;28;20051;-72
2022/08/08 11:22:59;;;;;;;3.78;0.90;;;26.00;82.20;;;;;;5073246;28;20071;-72
2022/08/08 11:25:30;;;;;;;2.53;0.90;;;26.00;85.80;;;;;;5072430;28;20035;-72
2022/08/08 11:27:58;;;;;;;2.17;0.80;;;26.30;86.50;;;;;;5074418;28;20048;-72
2022/08/08 11:30:28;;;;;;;2.58;0.80;;;26.60;83.00;;;;;;5073404;28;20028;-72
2022/08/08 11:32:56;;;;;;;2.20;0.70;;;26.80;84.60;;;;;;5049318;28;20047;-72
2022/08/08 11:35:24;;;;;;;3.30;1.00;;;26.80;82.30;;;;;;5074298;28;20051;-72
2022/08/08 11:37:50;;;;;;;2.40;0.90;;;26.70;78.40;;;;;;5073894;28;20050;-72
2022/08/08 11:40:16;;;;;;;1.92;0.73;;;26.70;79.70;;;;;;5092079;28;20460;-72
2022/08/08 11:42:42;;;;;;;2.72;0.70;;;26.70;81.20;;;;;;5063159;28;20040;-72
2022/08/08 11:45:10;;;;;;;2.50;0.82;;;26.80;82.20;;;;;;5072329;28;20051;-72
2022/08/08 11:47:37;;;;;;;2.33;0.80;;;27.00;80.60;;;;;;5089888;28;20119;-72
2022/08/08 11:50:12;;;;;;;2.90;0.80;;;27.00;78.90;;;;;;5058045;28;20432;-72
2022/08/08 11:52:38;;;;;;;1.17;0.60;;;26.90;79.00;;;;;;5062056;28;20368;-72
2022/08/08 11:55:27;;;;;;;4.15;0.98;;;26.80;77.70;;;;;;5059002;28;20039;-72
2022/08/08 11:58:19;;;;;;;2.63;0.85;;;26.70;80.30;;;;;;5073634;28;20075;-72
2022/08/08 12:00:46;;;;;;;;;;;26.60;81.20;;;;;;5061591;28;20122;-72
2022/08/08 12:03:20;;;;;;;3.10;0.70;;;26.30;80.10;;;;;;5073582;28;19916;-72
2022/08/08 12:05:46;;;;;;;4.00;1.10;;;26.20;79.90;;;;;;5053612;28;20404;-72
2022/08/08 12:08:12;;;;;;;2.28;0.70;;;26.20;79.50;;;;;;5085185;28;20157;-72
2022/08/08 12:10:49;;;;;;;3.15;0.80;;;26.10;79.00;;;;;;5079933;28;20026;-72
2022/08/08 12:13:21;;;;;;;2.50;0.73;;;26.00;80.00;;;;;;5073543;28;20043;-72
2022/08/08 12:15:48;;;;;;;2.67;0.93;;;26.00;80.60;;;;;;5074026;28;20040;-72
2022/08/08 12:18:21;;;;;;;1.42;0.60;;;26.00;80.60;;;;;;5070701;28;20044;-72
2022/08/08 12:20:50;;;;;;;2.97;0.55;;;26.10;79.20;;;;;;5053466;28;20105;-72
2022/08/08 12:23:34;;;;;;;1.08;0.60;;;26.10;79.50;;;;;;5075719;28;20119;-72
2022/08/08 12:26:10;;;;;;;2.75;0.60;;;26.20;77.30;;;;;;5057584;28;20075;-72
2022/08/08 12:28:36;;;;;;;2.75;0.70;;;26.20;75.80;;;;;;5069422;28;20082;-72
2022/08/08 12:31:06;;;;;;;1.88;0.68;;;26.40;76.60;;;;;;5070054;28;20514;-72
2022/08/08 12:33:32;;;;;;;2.70;0.70;;;26.50;75.80;;;;;;5086982;28;20032;-72
2022/08/08 12:35:57;;;;;;;2.47;0.75;;;26.80;73.20;;;;;;5072166;28;20442;-72
2022/08/08 12:38:23;;;;;;;3.10;0.70;;;26.80;74.30;;;;;;5073569;28;20422;-72
2022/08/08 12:40:52;;;;;;;2.72;1.10;;;26.80;77.80;;;;;;5056717;28;20051;-72
2022/08/08 12:43:31;;;;;;;3.10;0.70;;;26.90;77.50;;;;;;5066804;28;20085;-72
2022/08/08 12:45:56;;;;;;;2.25;0.80;;;26.90;75.50;;;;;;5052554;28;20045;-72
2022/08/08 12:48:24;;;;;;;3.45;0.80;;;26.70;74.40;;;;;;5083179;28;20490;-73
2022/08/08 12:50:55;;;;;;;3.58;0.70;;;26.60;76.80;;;;;;5074488;28;20037;-72
2022/08/08 12:53:32;;;;;;;2.78;0.60;;;26.50;78.10;;;;;;5072734;28;20054;-72
2022/08/08 12:56:03;;;;;;;2.25;0.90;;;26.70;78.00;;;;;;5064543;28;20044;-72
2022/08/08 12:58:43;;;;;;;2.42;0.63;;;26.80;79.80;;;;;;5075560;28;20040;-72
2022/08/08 13:01:10;;;;;;;3.40;0.90;;;26.70;80.20;;;;;;5090259;28;20506;-72
2022/08/08 13:03:43;;;;;;;2.83;0.77;;;26.70;80.70;;;;;;5076871;28;20076;-72
2022/08/08 13:06:13;;;;;;;3.30;1.08;;;26.60;81.60;;;;;;5064394;28;20128;-72
2022/08/08 13:08:47;;;;;;;2.40;0.70;;;26.50;79.70;;;;;;5073312;28;20098;-72
2022/08/08 13:11:22;;;;;;;1.70;0.80;;;26.30;81.90;;;;;;5076826;28;20044;-72
2022/08/08 13:14:00;;;;;;;1.17;0.52;;;26.20;81.20;;;;;;5067031;28;20123;-72
2022/08/08 13:16:26;;;;;;;3.33;0.85;;;26.00;81.50;;;;;;5077002;28;20035;-72
2022/08/08 13:18:56;;;;;;;3.03;1.00;;;25.80;83.50;;;;;;5075876;28;20044;-72
2022/08/08 13:21:23;;;;;;;1.48;0.65;;;25.60;85.60;;;;;;5066212;28;20040;-72
2022/08/08 13:23:48;;;;;;;2.33;0.63;;;25.60;83.90;;;;;;5073661;28;20181;-72
2022/08/08 13:26:14;;;;;;;2.75;0.82;;;25.40;86.00;;;;;;5068171;28;20051;-72
2022/08/08 13:28:40;;;;;;;4.03;0.88;;;25.30;89.60;;;;;;5072924;28;20044;-72
2022/08/08 13:31:11;;;;;;;3.10;0.73;;;25.30;88.80;;;;;;5062415;28;20052;-72